Time;durP1;ratioP1;P1;durP2;ratioP2;P2;SDS_P1;SDS_P2;PMS_P1;PMS_P2;Temp;Humidity;BMP_temperature;BMP_pressure;BME280_temperature;BME280_humidity;BME280_pressure;Samples;Min_cycle;Max_cycle;Signal;HPM_P1;HPM_P2
2022/05/20 00:00:18;;;;;;;34.17;22.33;;;;;;;-147.05;100.00;58721.66;5069433;28;20041;-70
2022/05/20 00:02:46;;;;;;;35.60;24.05;;;;;;;16.82;100.00;58721.66;5067017;28;20037;-70
2022/05/20 00:05:15;;;;;;;35.03;23.13;;;;;;;-147.05;100.00;58721.66;5071095;28;20509;-70
2022/05/20 00:07:42;;;;;;;37.83;23.23;;;;;;;14.17;100.00;58721.66;5062552;28;20038;-68
2022/05/20 00:10:15;;;;;;;34.97;23.25;;;;;;;-147.05;100.00;58721.66;5070433;28;20046;-70
2022/05/20 00:12:44;;;;;;;32.15;24.80;;;;;;;-147.05;100.00;58721.66;5063314;28;20041;-70
2022/05/20 00:15:18;;;;;;;33.60;22.63;;;;;;;-147.05;100.00;58721.66;5064658;28;20041;-69
2022/05/20 00:17:45;;;;;;;34.45;22.40;;;;;;;-147.05;100.00;58721.66;5065863;28;20041;-70
2022/05/20 00:20:17;;;;;;;34.35;22.33;;;;;;;-147.05;100.00;58721.66;5073464;28;20041;-69
2022/05/20 00:22:45;;;;;;;30.55;22.95;;;;;;;-147.05;100.00;58721.66;5070216;28;20037;-70
2022/05/20 00:28:01;;;;;;;33.00;23.13;;;;;;;-147.05;100.00;58721.66;5061276;28;20096;-71
2022/05/20 00:30:28;;;;;;;33.83;22.85;;;;;;;-147.05;100.00;58721.66;5067858;28;20048;-70
2022/05/20 00:32:56;;;;;;;33.03;23.27;;;;;;;-147.05;100.00;58721.66;5064749;28;20127;-70
2022/05/20 00:35:24;;;;;;;29.20;21.65;;;;;;;-147.05;100.00;58721.66;5069469;28;20033;-70
2022/05/20 00:37:54;;;;;;;34.65;23.52;;;;;;;-147.05;100.00;58721.66;5068488;28;20048;-69
2022/05/20 00:40:25;;;;;;;40.00;25.75;;;;;;;-147.05;100.00;58721.66;5070947;28;20040;-69
2022/05/20 00:43:25;;;;;;;34.58;24.58;;;;;;;-147.05;100.00;58721.66;5064758;28;20251;-70
2022/05/20 00:45:59;;;;;;;36.28;24.30;;;;;;;-147.05;100.00;58721.66;5071033;28;20116;-70
2022/05/20 00:48:28;;;;;;;34.42;24.75;;;;;;;-147.05;100.00;58721.66;5060381;28;20503;-71
2022/05/20 00:51:22;;;;;;;38.47;25.65;;;;;;;-147.05;100.00;58721.66;5071907;28;20091;-70
2022/05/20 00:54:04;;;;;;;33.65;23.90;;;;;;;-147.05;100.00;58721.66;5059818;28;20497;-68
2022/05/20 00:56:38;;;;;;;36.50;24.10;;;;;;;-147.05;100.00;58721.66;5072226;28;20052;-67
2022/05/20 00:59:11;;;;;;;31.55;23.42;;;;;;;-147.05;100.00;58721.66;5069513;28;20037;-67
2022/05/20 01:01:38;;;;;;;37.03;24.80;;;;;;;-147.05;100.00;58721.66;5071622;28;20060;-68
2022/05/20 01:04:25;;;;;;;35.25;22.90;;;;;;;-147.05;100.00;58721.66;5064653;28;20057;-68
2022/05/20 01:06:53;;;;;;;30.23;22.50;;;;;;;-147.05;100.00;58721.66;5065888;28;20575;-68
2022/05/20 01:09:40;;;;;;;37.05;24.98;;;;;;;-147.05;100.00;58721.66;5065588;28;20553;-69
2022/05/20 01:12:08;;;;;;;31.67;23.60;;;;;;;-147.05;100.00;58721.66;5066675;28;20095;-70
2022/05/20 01:14:35;;;;;;;32.65;22.88;;;;;;;-147.05;100.00;58721.66;5068128;28;20695;-71
2022/05/20 01:17:04;;;;;;;35.05;23.52;;;;;;;-147.05;100.00;58721.66;5068419;28;20120;-71
2022/05/20 01:19:45;;;;;;;31.10;22.02;;;;;;;11.19;100.00;58721.66;5067993;28;20045;-70
2022/05/20 01:22:26;;;;;;;31.10;23.25;;;;;;;-147.05;100.00;58721.66;5067344;28;20065;-70
2022/05/20 01:24:54;;;;;;;36.10;23.75;;;;;;;-147.05;100.00;58721.66;5065786;28;20094;-70
2022/05/20 01:27:21;;;;;;;35.75;23.17;;;;;;;-147.05;100.00;58721.66;5064285;28;20123;-70
2022/05/20 01:29:48;;;;;;;33.25;22.70;;;;;;;-147.05;100.00;58721.66;5066077;28;20037;-71
2022/05/20 01:32:17;;;;;;;31.15;22.92;;;;;;;-147.05;100.00;58721.66;5066386;28;20053;-71
2022/05/20 01:34:45;;;;;;;31.80;22.60;;;;;;;-147.05;100.00;58721.66;5070411;28;20124;-71
2022/05/20 01:37:13;;;;;;;37.05;24.02;;;;;;;-147.05;100.00;58721.66;5069821;28;20068;-70
2022/05/20 01:39:42;;;;;;;33.38;23.42;;;;;;;-147.05;100.00;58721.66;5067323;28;20040;-70
2022/05/20 01:42:43;;;;;;;35.85;24.00;;;;;;;-147.05;100.00;58721.66;5060557;28;20049;-70
2022/05/20 01:45:24;;;;;;;34.72;24.05;;;;;;;-147.05;100.00;58721.66;5056707;28;20041;-70
2022/05/20 01:48:21;;;;;;;32.92;24.38;;;;;;;-147.05;100.00;58721.66;5070935;28;20041;-71
2022/05/20 01:50:55;;;;;;;34.88;24.23;;;;;;;-147.05;100.00;58721.66;5067357;28;20048;-70
2022/05/20 01:53:46;;;;;;;35.05;23.48;;;;;;;-147.05;100.00;58721.66;5057668;28;20064;-70
2022/05/20 01:56:22;;;;;;;35.90;25.65;;;;;;;-147.05;100.00;58721.66;5052907;28;20033;-70
2022/05/20 01:59:08;;;;;;;37.90;24.92;;;;;;;-147.05;100.00;58721.66;5059164;28;20049;-69
2022/05/20 02:02:08;;;;;;;31.75;24.10;;;;;;;-147.05;100.00;58721.66;5061433;28;20572;-68
2022/05/20 02:04:44;;;;;;;34.80;24.70;;;;;;;-147.05;100.00;58721.66;5060481;28;20420;-69
2022/05/20 02:07:26;;;;;;;34.83;24.25;;;;;;;-147.05;100.00;58721.66;5068104;28;20120;-68
2022/05/20 02:10:09;;;;;;;32.05;24.25;;;;;;;-147.05;100.00;58721.66;5063270;28;20128;-67
2022/05/20 02:12:46;;;;;;;35.00;23.88;;;;;;;-147.05;100.00;58721.66;5053443;28;20491;-66
2022/05/20 02:15:29;;;;;;;35.15;24.25;;;;;;;-147.05;100.00;58721.66;5064095;28;20075;-67
2022/05/20 02:18:03;;;;;;;37.95;25.77;;;;;;;-147.05;100.00;58721.66;5058860;28;20049;-65
2022/05/20 02:20:39;;;;;;;36.88;27.40;;;;;;;-147.05;100.00;58721.66;5065204;28;20045;-66
2022/05/20 02:23:14;;;;;;;39.88;26.63;;;;;;;-147.05;100.00;58721.66;5062453;28;20507;-70
2022/05/20 02:25:54;;;;;;;40.05;25.70;;;;;;;-147.05;100.00;58721.66;5062792;28;20048;-70
2022/05/20 02:28:35;;;;;;;34.17;25.42;;;;;;;-147.05;100.00;58721.66;5058297;28;20051;-69
2022/05/20 02:31:10;;;;;;;35.00;24.08;;;;;;;-147.05;100.00;58721.66;5068863;28;20049;-69
2022/05/20 02:33:39;;;;;;;35.22;24.23;;;;;;;-147.05;100.00;58721.66;5054383;28;20044;-69
2022/05/20 02:36:25;;;;;;;32.90;24.05;;;;;;;-147.05;100.00;58721.66;5072602;28;20143;-69
2022/05/20 02:38:52;;;;;;;36.05;23.98;;;;;;;-147.05;100.00;58721.66;5071745;28;20052;-69
2022/05/20 02:41:23;;;;;;;35.30;24.05;;;;;;;-147.05;100.00;58721.66;5064466;28;20075;-69
2022/05/20 02:43:50;;;;;;;34.47;23.05;;;;;;;-147.05;100.00;58721.66;5070838;28;20048;-69
2022/05/20 02:46:17;;;;;;;36.88;25.63;;;;;;;-147.05;100.00;58721.66;5068813;28;20067;-69
2022/05/20 02:48:44;;;;;;;32.15;23.13;;;;;;;-147.05;100.00;58721.66;5056520;28;20481;-70
2022/05/20 02:51:11;;;;;;;34.65;24.80;;;;;;;-147.05;100.00;58721.66;5065236;28;20041;-70
2022/05/20 02:53:38;;;;;;;35.35;24.95;;;;;;;10.54;100.00;58721.66;5059479;28;20107;-68
2022/05/20 02:56:05;;;;;;;39.35;26.80;;;;;;;-147.05;100.00;58721.66;5061947;28;20037;-69
2022/05/20 03:04:10;;;;;;;37.33;25.70;;;;;;;-147.05;100.00;58721.66;5062966;28;20115;-69
2022/05/20 03:06:48;;;;;;;39.63;25.35;;;;;;;-147.05;100.00;58721.66;5069577;28;20042;-71
2022/05/20 03:09:22;;;;;;;33.08;23.92;;;;;;;-147.05;100.00;58721.66;5071838;28;20033;-71
2022/05/20 03:11:49;;;;;;;36.00;25.33;;;;;;;-147.05;100.00;58721.66;5067734;28;20040;-70
2022/05/20 03:14:21;;;;;;;36.90;25.85;;;;;;;-147.05;100.00;58721.66;5057637;28;20038;-71
2022/05/20 03:16:50;;;;;;;40.63;26.08;;;;;;;-147.05;100.00;58721.66;5069272;28;20918;-71
2022/05/20 03:19:20;;;;;;;36.03;25.30;;;;;;;-147.05;100.00;58721.66;5075088;28;20051;-71
2022/05/20 03:21:48;;;;;;;36.38;25.70;;;;;;;-147.05;100.00;58721.66;5057871;28;20064;-70
2022/05/20 03:24:16;;;;;;;35.88;24.92;;;;;;;-147.05;100.00;58721.66;5064898;28;20033;-70
2022/05/20 03:26:43;;;;;;;31.77;24.92;;;;;;;-147.05;100.00;58721.66;5070702;28;20037;-70
2022/05/20 03:29:10;;;;;;;33.97;24.13;;;;;;;10.20;100.00;58721.66;5071143;28;20041;-70
2022/05/20 03:31:39;;;;;;;32.17;22.70;;;;;;;-147.05;100.00;58721.66;5073223;28;20063;-71
2022/05/20 03:34:09;;;;;;;30.60;24.13;;;;;;;-147.05;100.00;58721.66;5062607;28;20088;-71
2022/05/20 03:36:48;;;;;;;29.27;22.63;;;;;;;-147.05;100.00;58721.66;5070634;28;20498;-68
2022/05/20 03:39:19;;;;;;;32.03;23.50;;;;;;;-147.05;100.00;58721.66;5069508;28;20041;-67
2022/05/20 03:41:47;;;;;;;29.92;21.92;;;;;;;-147.05;100.00;58721.66;5073795;28;20033;-70
2022/05/20 03:44:16;;;;;;;58.40;24.33;;;;;;;-147.05;100.00;58721.66;5064497;28;20043;-69
2022/05/20 03:46:48;;;;;;;32.05;23.42;;;;;;;-147.05;100.00;58721.66;5057219;28;20038;-69
2022/05/20 03:49:17;;;;;;;33.30;23.63;;;;;;;-147.05;100.00;58721.66;5052561;28;20115;-69
2022/05/20 03:51:47;;;;;;;36.30;24.17;;;;;;;-147.05;100.00;58721.66;5060382;28;20033;-69
2022/05/20 03:54:16;;;;;;;34.28;22.30;;;;;;;-147.05;100.00;58721.66;5056666;28;20503;-70
2022/05/20 03:56:43;;;;;;;33.65;23.52;;;;;;;-147.05;100.00;58721.66;5058150;28;20041;-67
2022/05/20 03:59:11;;;;;;;31.95;23.40;;;;;;;-147.05;100.00;58721.66;5058897;28;20037;-67
2022/05/20 04:01:56;;;;;;;30.55;22.85;;;;;;;-147.05;100.00;58721.66;5064430;28;20037;-68
2022/05/20 04:04:42;;;;;;;26.90;21.77;;;;;;;-147.05;100.00;58721.66;5067816;28;20037;-70
2022/05/20 04:07:19;;;;;;;28.10;21.30;;;;;;;10.17;100.00;58721.66;5070705;28;20156;-69
2022/05/20 04:09:48;;;;;;;32.13;22.63;;;;;;;-147.05;100.00;58721.66;5052486;28;20042;-70
2022/05/20 04:12:28;;;;;;;28.08;22.17;;;;;;;-147.05;100.00;58721.66;5068450;28;20045;-71
2022/05/20 04:15:15;;;;;;;26.88;20.83;;;;;;;-147.05;100.00;58721.66;5061817;28;20123;-70
2022/05/20 04:17:43;;;;;;;29.58;20.50;;;;;;;-147.05;100.00;58721.66;5062736;28;20150;-70
2022/05/20 04:20:10;;;;;;;30.25;23.25;;;;;;;-147.05;100.00;58721.66;5064922;28;20037;-70
2022/05/20 04:22:38;;;;;;;29.17;22.70;;;;;;;-147.05;100.00;58721.66;5070342;28;20045;-70
2022/05/20 04:25:06;;;;;;;34.30;23.42;;;;;;;-147.05;100.00;58721.66;5062284;28;20047;-70
2022/05/20 04:27:33;;;;;;;37.17;25.10;;;;;;;-147.05;100.00;58721.66;5054456;28;20041;-70
2022/05/20 04:30:01;;;;;;;30.60;22.10;;;;;;;-147.05;100.00;58721.66;5067140;28;20710;-70
2022/05/20 04:32:28;;;;;;;31.30;22.50;;;;;;;-147.05;100.00;58721.66;5062462;28;20072;-69
2022/05/20 04:34:56;;;;;;;30.75;23.17;;;;;;;-147.05;100.00;58721.66;5063916;28;20045;-69
2022/05/20 04:37:26;;;;;;;28.98;21.10;;;;;;;-147.05;100.00;58721.66;5066335;28;20041;-69
2022/05/20 04:39:54;;;;;;;27.38;20.38;;;;;;;-147.05;100.00;58721.66;5073056;28;20033;-70
2022/05/20 04:47:55;;;;;;;25.83;16.48;;;;;;;11.27;100.00;58721.66;5057950;28;20049;-71
2022/05/20 04:50:23;;;;;;;59.13;15.82;;;;;;;-147.05;100.00;58721.66;5074058;28;20048;-72
2022/05/20 04:52:50;;;;;;;68.43;15.40;;;;;;;-147.05;100.00;58721.66;5068224;28;20076;-70
2022/05/20 04:55:18;;;;;;;68.22;17.48;;;;;;;-147.05;100.00;58721.66;5072222;28;20056;-70
2022/05/20 04:57:52;;;;;;;74.78;16.65;;;;;;;-147.05;100.00;58721.66;5064584;28;21122;-70
2022/05/20 05:00:30;;;;;;;42.20;15.73;;;;;;;-147.05;100.00;58721.66;5064934;28;20053;-70
2022/05/20 05:02:57;;;;;;;17.63;15.80;;;;;;;-147.05;100.00;58721.66;5060228;28;20049;-71
2022/05/20 05:05:28;;;;;;;17.35;13.90;;;;;;;-147.05;100.00;58721.66;5077348;28;20037;-70
2022/05/20 05:07:58;;;;;;;17.95;16.08;;;;;;;-147.05;100.00;58721.66;5066593;28;20034;-69
2022/05/20 05:10:30;;;;;;;18.02;16.13;;;;;;;-147.05;100.00;58721.66;5062987;28;20054;-69
2022/05/20 05:13:00;;;;;;;30.83;17.40;;;;;;;-147.05;100.00;58721.66;5065060;28;20049;-70
2022/05/20 05:15:29;;;;;;;50.70;17.20;;;;;;;-147.05;100.00;58721.66;5072083;28;20076;-71
2022/05/20 05:18:14;;;;;;;27.65;17.48;;;;;;;-147.05;100.00;58721.66;5062248;28;20096;-70
2022/05/20 05:20:50;;;;;;;23.65;15.40;;;;;;;-147.05;100.00;58721.66;5061121;28;20046;-71
2022/05/20 05:23:20;;;;;;;19.17;16.23;;;;;;;-147.05;100.00;58721.66;5053358;28;20068;-70
2022/05/20 05:25:47;;;;;;;21.05;17.15;;;;;;;15.50;100.00;58721.66;5057643;28;20073;-71
2022/05/20 05:28:16;;;;;;;16.85;14.95;;;;;;;15.01;78.07;102054.16;5072615;28;20045;-71
2022/05/20 05:30:50;;;;;;;15.82;14.20;;;;;;;15.90;75.01;102041.63;5061975;28;20045;-72
2022/05/20 05:33:19;;;;;;;17.77;14.48;;;;;;;16.73;72.76;102034.31;5065884;28;20053;-71
2022/05/20 05:35:47;;;;;;;15.90;14.25;;;;;;;17.40;69.95;102037.97;5071219;28;20041;-71
2022/05/20 05:38:14;;;;;;;15.32;13.70;;;;;;;17.91;68.78;102037.69;5070446;28;20048;-71
2022/05/20 05:40:41;;;;;;;14.25;12.77;;;;;;;18.43;67.76;102024.75;5072306;28;20033;-71
2022/05/20 05:43:10;;;;;;;15.25;12.60;;;;;;;19.09;65.77;102017.34;5070355;28;20041;-71
2022/05/20 05:45:38;;;;;;;13.25;11.95;;;;;;;19.64;63.54;102018.28;5075127;28;20041;-71
2022/05/20 05:48:09;;;;;;;14.27;11.88;;;;;;;20.11;61.39;102020.34;5076127;28;20036;-71
2022/05/20 05:50:39;;;;;;;14.35;12.68;;;;;;;20.59;59.96;102015.16;5069037;28;20037;-71
2022/05/20 05:53:16;;;;;;;14.50;13.10;;;;;;;21.00;59.21;102011.19;5071910;28;20120;-71
2022/05/20 05:55:48;;;;;;;14.57;13.07;;;;;;;21.30;57.70;102015.75;5072723;28;20049;-70
2022/05/20 05:58:16;;;;;;;15.43;13.82;;;;;;;21.49;57.32;102012.84;5072470;28;20047;-71
2022/05/20 06:00:43;;;;;;;19.45;15.35;;;;;;;21.48;55.94;102004.91;5072853;28;20112;-70
2022/05/20 06:03:14;;;;;;;18.30;16.33;;;;;;;21.26;56.84;102006.16;5073934;28;20142;-71
2022/05/20 06:05:44;;;;;;;17.83;15.98;;;;;;;20.57;58.26;102005.47;5072007;28;20049;-71
2022/05/20 06:08:11;;;;;;;18.52;15.95;;;;;;;19.68;59.71;102006.50;5071721;28;20036;-71
2022/05/20 06:10:38;;;;;;;21.77;17.00;;;;;;;18.89;62.17;102004.91;5072949;28;20220;-70
2022/05/20 06:13:06;;;;;;;20.00;17.70;;;;;;;18.21;64.93;102006.19;5073490;28;20045;-70
2022/05/20 06:15:33;;;;;;;20.83;17.67;;;;;;;17.82;66.39;101999.78;5073319;28;20044;-71
2022/05/20 06:18:00;;;;;;;26.23;20.50;;;;;;;17.53;67.69;101993.03;5072880;28;20143;-70
2022/05/20 06:20:28;;;;;;;33.08;26.60;;;;;;;17.21;68.50;101982.75;5071201;28;20120;-72
2022/05/20 06:23:01;;;;;;;29.73;22.88;;;;;;;16.99;69.05;101990.72;5072937;28;20033;-71
2022/05/20 06:25:30;;;;;;;33.90;24.93;;;;;;;16.90;70.06;101980.41;5071968;28;20142;-71
2022/05/20 06:28:10;;;;;;;26.08;21.85;;;;;;;16.80;70.66;101976.38;5073029;28;20045;-71
2022/05/20 06:30:38;;;;;;;28.55;20.63;;;;;;;16.74;70.86;101969.47;5073062;28;20107;-70
2022/05/20 06:33:05;;;;;;;23.73;18.17;;;;;;;16.65;71.00;101964.50;5071190;28;20711;-71
2022/05/20 06:41:06;;;;;;;24.60;16.60;;;;;;;16.46;71.91;101952.75;5071899;28;20041;-69
2022/05/20 06:43:35;;;;;;;20.88;15.50;;;;;;;16.54;71.60;101951.59;5073055;28;20037;-69
2022/05/20 06:46:04;;;;;;;21.92;15.18;;;;;;;16.61;71.01;101953.13;5073390;28;20044;-70
2022/05/20 06:48:53;;;;;;;18.13;13.98;;;;;;;16.68;70.52;101957.25;5076961;28;20047;-69
2022/05/20 06:51:26;;;;;;;17.83;13.23;;;;;;;16.81;69.13;101964.78;5073087;28;20545;-70
2022/05/20 06:53:56;;;;;;;16.45;12.73;;;;;;;16.90;68.56;101970.59;5072404;28;20033;-70
2022/05/20 06:56:28;;;;;;;17.67;11.95;;;;;;;16.98;68.37;101973.00;5072880;28;20041;-69
2022/05/20 06:58:57;;;;;;;17.85;11.63;;;;;;;17.04;68.31;101963.91;5070629;28;20048;-70
2022/05/20 07:01:25;;;;;;;12.95;9.07;;;;;;;17.04;66.54;101962.09;5071715;28;20032;-70
2022/05/20 07:03:53;;;;;;;13.95;10.65;;;;;;;17.16;67.30;101958.09;5072550;28;20501;-70
2022/05/20 07:06:25;;;;;;;15.82;10.00;;;;;;;17.38;65.67;101955.41;5072148;28;20068;-70
2022/05/20 07:08:52;;;;;;;14.13;9.63;;;;;;;17.58;64.82;101947.53;5072554;28;20040;-70
2022/05/20 07:11:23;;;;;;;12.05;7.80;;;;;;;17.59;64.06;101939.44;5072355;28;20037;-70
2022/05/20 07:13:58;;;;;;;11.40;6.53;;;;;;;17.51;64.10;101938.91;5071673;28;20123;-70
2022/05/20 07:16:29;;;;;;;9.85;5.95;;;;;;;17.52;63.68;101933.50;5071915;28;20075;-70
2022/05/20 07:18:57;;;;;;;8.50;6.70;;;;;;;17.63;63.01;101930.41;5072068;28;20051;-69
2022/05/20 07:21:24;;;;;;;12.23;6.55;;;;;;;17.71;63.51;101922.03;5072258;28;20037;-69
2022/05/20 07:23:51;;;;;;;10.55;6.30;;;;;;;-147.05;100.00;58721.66;5072592;28;20037;-69
2022/05/20 07:26:21;;;;;;;9.27;6.50;;;;;;;-147.05;100.00;58721.66;5072460;28;20143;-70
2022/05/20 07:28:51;;;;;;;9.18;6.68;;;;;;;-147.05;100.00;58721.66;5072199;28;20759;-70
2022/05/20 07:31:20;;;;;;;9.95;6.35;;;;;;;-147.05;100.00;58721.66;5071974;28;20481;-70
2022/05/20 07:33:48;;;;;;;6.13;4.40;;;;;;;-147.05;100.00;58721.66;5072092;28;20044;-70
2022/05/20 07:36:15;;;;;;;8.40;3.70;;;;;;;-147.05;100.00;58721.66;5071608;28;20503;-71
2022/05/20 07:38:44;;;;;;;6.45;3.70;;;;;;;-147.05;100.00;58721.66;5071356;28;20112;-70
2022/05/20 07:41:12;;;;;;;7.85;3.80;;;;;;;18.74;58.09;101897.84;5062280;28;21905;-71
2022/05/20 07:43:40;;;;;;;8.82;3.30;;;;;;;18.93;56.65;101903.19;5071965;28;20099;-69
2022/05/20 07:46:08;;;;;;;4.43;2.80;;;;;;;19.09;55.00;101891.75;5071768;28;20044;-70
2022/05/20 07:48:36;;;;;;;4.93;2.55;;;;;;;19.25;54.68;101889.16;5070977;28;20076;-70
2022/05/20 07:51:10;;;;;;;7.40;2.65;;;;;;;19.49;55.21;101895.06;5072146;28;20033;-70
2022/05/20 07:53:44;;;;;;;5.15;2.30;;;;;;;19.69;53.59;101882.47;5071845;28;20041;-69
2022/05/20 07:56:17;;;;;;;6.13;2.20;;;;;;;19.91;54.88;101876.91;5072259;28;20041;-71
2022/05/20 07:59:02;;;;;;;4.78;2.95;;;;;;;20.06;50.13;101871.66;5071758;28;20053;-70
2022/05/20 08:01:33;;;;;;;4.32;2.30;;;;;;;20.05;51.41;101872.59;5072663;28;20041;-71
2022/05/20 08:07:05;;;;;;;6.38;2.63;;;;;;;20.06;52.27;101877.00;5072703;28;20044;-70
2022/05/20 08:09:32;;;;;;;5.80;2.92;;;;;;;20.26;51.22;101871.44;5071561;28;20072;-70
2022/05/20 08:12:00;;;;;;;6.28;2.90;;;;;;;20.36;50.90;101857.53;5066044;28;20128;-71
2022/05/20 08:14:30;;;;;;;6.25;3.00;;;;;;;20.53;51.18;101861.94;5069047;28;20037;-70
2022/05/20 08:17:00;;;;;;;6.93;3.15;;;;;;;20.54;49.52;101861.88;5074568;28;20136;-71
2022/05/20 08:19:28;;;;;;;6.00;3.90;;;;;;;20.51;48.66;101859.38;5070347;28;20478;-71
2022/05/20 08:21:55;;;;;;;9.98;3.75;;;;;;;20.47;49.60;101858.69;5074062;28;20104;-70
2022/05/20 08:24:23;;;;;;;5.55;2.95;;;;;;;20.35;47.84;101856.69;5074190;28;20037;-70
2022/05/20 08:26:51;;;;;;;9.43;2.70;;;;;;;20.26;47.57;101859.88;5074691;28;20053;-70
2022/05/20 08:29:19;;;;;;;7.38;3.38;;;;;;;20.20;48.59;101858.41;5073259;28;20071;-71
2022/05/20 08:31:46;;;;;;;6.57;3.50;;;;;;;20.22;48.70;101844.91;5070692;28;20896;-70
2022/05/20 08:34:13;;;;;;;5.60;3.40;;;;;;;20.35;48.87;101843.28;5073704;28;20120;-70
2022/05/20 08:36:40;;;;;;;7.35;3.70;;;;;;;20.39;48.95;101842.19;5074993;28;20509;-70
2022/05/20 08:39:14;;;;;;;8.45;3.75;;;;;;;20.60;47.71;101845.44;5073327;28;20507;-70
2022/05/20 08:41:54;;;;;;;6.72;4.40;;;;;;;20.75;49.35;101834.84;5073447;28;20519;-71
2022/05/20 08:44:24;;;;;;;7.60;4.18;;;;;;;20.95;48.60;101833.66;5074264;28;20045;-71
2022/05/20 08:47:23;;;;;;;6.32;4.45;;;;;;;21.24;47.37;101829.28;5061683;28;20128;-70
2022/05/20 08:49:57;;;;;;;7.45;4.30;;;;;;;21.36;46.65;101822.28;5069847;28;20121;-70
2022/05/20 08:52:26;;;;;;;7.28;3.80;;;;;;;21.42;45.53;101831.78;5074352;28;20087;-70
2022/05/20 08:54:53;;;;;;;6.78;4.20;;;;;;;21.44;46.88;101824.53;5074305;28;20052;-70
2022/05/20 08:57:39;;;;;;;;;;;;;;;21.49;46.38;101818.88;5074279;28;20051;-70
2022/05/20 09:00:12;;;;;;;8.85;4.70;;;;;;;21.36;46.07;101808.88;5074955;28;19924;-68
2022/05/20 09:02:43;;;;;;;4.68;3.67;;;;;;;21.30;46.25;101789.63;5074430;28;20045;-71
2022/05/20 09:05:33;;;;;;;6.90;4.18;;;;;;;21.22;46.93;101792.75;5053894;28;20046;-70
2022/05/20 09:08:19;;;;;;;7.88;4.05;;;;;;;21.16;46.98;101783.31;5064490;28;20047;-70
2022/05/20 09:10:56;;;;;;;7.20;4.25;;;;;;;21.06;46.79;101766.88;5073981;28;20041;-71
2022/05/20 09:16:29;;;;;;;6.82;4.25;;;;;;;21.34;48.93;101759.00;5072146;28;20493;-70
2022/05/20 09:19:14;;;;;;;8.43;4.20;;;;;;;21.71;47.93;101746.00;5073803;28;20752;-71
2022/05/20 09:22:06;;;;;;;5.97;4.00;;;;;;;21.91;47.74;101749.22;5073863;28;20047;-71
2022/05/20 09:24:44;;;;;;;9.60;4.82;;;;;;;22.00;47.67;101744.13;5072701;28;20045;-72
2022/05/20 09:27:17;;;;;;;7.30;4.30;;;;;;;22.14;47.54;101745.91;5073474;28;20087;-71
2022/05/20 09:30:00;;;;;;;9.67;4.57;;;;;;;22.29;46.36;101746.72;5073223;28;20041;-69
2022/05/20 09:32:40;;;;;;;9.05;5.03;;;;;;;22.35;46.25;101745.47;5072346;28;20263;-70
2022/05/20 09:35:23;;;;;;;8.00;4.70;;;;;;;22.81;45.00;101733.50;5073221;28;20120;-71
2022/05/20 09:37:53;;;;;;;9.60;4.55;;;;;;;22.93;45.31;101732.66;5073627;28;20517;-69
2022/05/20 09:40:34;;;;;;;6.85;4.30;;;;;;;23.24;43.85;101730.56;5077950;28;20063;-71
2022/05/20 09:43:31;;;;;;;8.95;4.45;;;;;;;23.19;44.31;101727.31;5079504;28;20102;-70
2022/05/20 09:46:01;;;;;;;8.38;4.50;;;;;;;23.25;44.94;101718.81;5080683;28;20073;-71
2022/05/20 09:48:55;;;;;;;7.78;4.38;;;;;;;23.57;45.25;101722.88;5076128;28;20045;-71
2022/05/20 09:51:37;;;;;;;9.17;5.20;;;;;;;23.68;42.76;101711.31;5070600;28;20118;-70
2022/05/20 09:54:34;;;;;;;9.15;4.82;;;;;;;23.63;44.03;101700.03;5074563;28;20258;-71
2022/05/20 09:57:09;;;;;;;8.20;4.40;;;;;;;23.67;45.81;101698.84;5074215;28;20045;-71
2022/05/20 09:59:46;;;;;;;9.13;4.82;;;;;;;23.78;43.72;101693.53;5073739;28;20925;-70
2022/05/20 10:02:28;;;;;;;10.02;4.80;;;;;;;23.73;43.64;101690.34;5061514;28;20037;-70
2022/05/20 10:05:33;;;;;;;9.30;5.70;;;;;;;23.62;44.26;101674.09;5072942;28;20052;-70
2022/05/20 10:08:24;;;;;;;;;;;;;;;23.58;44.43;101665.41;5073402;28;20068;-70
2022/05/20 10:11:11;;;;;;;7.55;5.25;;;;;;;23.65;44.46;101653.19;5073935;28;19930;-70
2022/05/20 10:14:21;;;;;;;10.68;5.80;;;;;;;23.67;44.29;101647.69;5054497;28;20038;-69
2022/05/20 10:17:09;;;;;;;8.73;5.03;;;;;;;23.79;44.79;101640.56;5052404;28;20559;-70
2022/05/20 10:20:08;;;;;;;11.23;5.93;;;;;;;23.97;46.40;101628.47;5072680;28;20586;-71
2022/05/20 10:23:07;;;;;;;10.40;6.00;;;;;;;24.27;46.37;101613.63;5072530;28;20047;-71
2022/05/20 10:26:10;;;;;;;14.85;6.13;;;;;;;24.42;43.85;101603.53;5073655;28;20139;-70
2022/05/20 10:32:35;;;;;;;8.48;5.18;;;;;;;24.26;44.68;101587.69;5086834;28;20562;-72
2022/05/20 10:35:10;;;;;;;8.82;5.22;;;;;;;24.42;43.77;101583.81;5051124;28;20101;-70
2022/05/20 10:38:22;;;;;;;8.82;5.18;;;;;;;24.53;43.09;101562.25;5055412;28;20045;-71
2022/05/20 10:40:55;;;;;;;14.57;6.55;;;;;;;24.61;43.59;101548.19;5053568;28;20517;-70
2022/05/20 10:50:31;;;;;;;10.85;5.60;;;;;;;24.58;44.80;101530.41;5073186;28;20045;-70
2022/05/20 10:53:19;;;;;;;11.13;5.05;;;;;;;24.88;43.91;101531.69;5072412;28;20083;-70
2022/05/20 10:56:18;;;;;;;13.13;7.93;;;;;;;25.22;44.38;101511.88;5071150;28;20072;-70
2022/05/20 10:59:09;;;;;;;13.55;8.70;;;;;;;25.12;44.35;101512.63;5072372;28;20657;-70
2022/05/20 11:02:07;;;;;;;11.55;8.23;;;;;;;24.95;44.52;101497.81;5071822;28;20442;-70
2022/05/20 11:05:24;;;;;;;11.45;7.53;;;;;;;24.89;45.09;101487.56;5052735;28;20112;-69
2022/05/20 11:08:15;;;;;;;14.05;8.00;;;;;;;25.05;45.41;101473.69;5070065;28;20045;-70
2022/05/20 11:11:17;;;;;;;13.40;8.75;;;;;;;25.24;45.48;101458.66;5071994;28;20080;-70
2022/05/20 11:14:16;;;;;;;16.23;9.05;;;;;;;25.17;45.07;101444.81;5060532;28;20503;-71
2022/05/20 11:17:29;;;;;;;15.75;9.55;;;;;;;25.21;44.58;101426.53;5071662;28;20053;-71
2022/05/20 11:20:33;;;;;;;14.18;8.63;;;;;;;25.31;44.92;101408.59;5070243;28;20077;-71
2022/05/20 11:23:38;;;;;;;11.82;8.55;;;;;;;25.11;45.63;101394.94;5071856;28;20045;-71
2022/05/20 11:26:51;;;;;;;16.65;10.25;;;;;;;25.34;44.75;101377.78;5072598;28;20049;-70
2022/05/20 11:30:03;;;;;;;12.93;9.57;;;;;;;25.46;45.33;101375.94;5070559;28;20091;-71
2022/05/20 11:32:53;;;;;;;13.35;9.98;;;;;;;25.56;43.93;101357.97;5071998;28;20132;-70
2022/05/20 11:35:47;;;;;;;14.55;9.23;;;;;;;25.54;45.32;101359.94;5078562;27;20060;-70
2022/05/20 11:38:49;;;;;;;14.07;9.27;;;;;;;25.70;45.77;101359.47;5072229;28;20075;-71
2022/05/20 11:41:34;;;;;;;20.88;9.85;;;;;;;25.72;44.61;101355.63;5083540;28;20045;-72
2022/05/20 11:44:50;;;;;;;14.32;9.23;;;;;;;25.68;45.64;101351.53;5090686;28;20051;-71
2022/05/20 11:48:08;;;;;;;15.95;9.88;;;;;;;25.41;45.63;101333.16;5084221;28;20052;-71
2022/05/20 11:51:17;;;;;;;13.15;9.30;;;;;;;25.00;46.53;101318.63;5093736;28;20119;-71
2022/05/20 11:53:58;;;;;;;14.00;9.18;;;;;;;24.38;47.88;101302.13;5092131;28;20067;-71
2022/05/20 11:56:53;;;;;;;15.65;8.93;;;;;;;23.99;50.04;101310.63;5077945;28;20049;-70
2022/05/20 11:59:31;;;;;;;15.27;9.60;;;;;;;23.62;50.29;101306.28;5083735;28;20043;-70
2022/05/20 12:02:05;;;;;;;16.20;9.05;;;;;;;23.26;51.45;101300.94;5093943;28;20045;-71
2022/05/20 12:04:36;;;;;;;15.98;9.43;;;;;;;22.94;51.93;101298.84;5095124;28;20044;-71
2022/05/20 12:07:12;;;;;;;16.45;9.30;;;;;;;22.64;52.76;101293.97;5093438;28;20048;-71
2022/05/20 12:09:45;;;;;;;15.88;9.95;;;;;;;22.38;53.65;101294.06;5093880;28;20045;-73
2022/05/20 12:12:33;;;;;;;15.93;9.05;;;;;;;22.19;54.64;101299.91;5095352;28;20119;-71
2022/05/20 12:15:12;;;;;;;17.85;11.43;;;;;;;21.99;55.89;101298.63;5095666;28;20090;-71
2022/05/20 12:17:48;;;;;;;19.38;12.10;;;;;;;21.84;56.19;101287.16;5090510;28;20051;-72
2022/05/20 12:26:00;;;;;;;19.48;12.38;;;;;;;21.37;58.52;101250.16;5086965;28;20144;-72
2022/05/20 12:28:37;;;;;;;21.13;12.48;;;;;;;21.16;59.24;101260.56;5090849;28;20040;-72